Time;durP1;ratioP1;P1;durP2;ratioP2;P2;SDS_P1;SDS_P2;PMS_P1;PMS_P2;Temp;Humidity;BMP_temperature;BMP_pressure;BME280_temperature;BME280_humidity;BME280_pressure;Samples;Min_cycle;Max_cycle;Signal;HPM_P1;HPM_P2
2021/05/27 06:14:59;;;;;;;1.85;1.75;;;;;;;24.22;56.09;101767.67;1738756;81;21717;-49
2021/05/27 06:20:45;;;;;;;2.20;2.10;;;;;;;24.07;56.99;101767.28;1811765;79;21051;-47
2021/05/27 06:23:14;;;;;;;1.90;1.80;;;;;;;24.16;57.41;101764.06;1815533;79;21032;-47
2021/05/27 06:25:41;;;;;;;1.60;1.50;;;;;;;24.28;57.04;101757.61;1724617;82;21628;-48
2021/05/27 06:28:08;;;;;;;1.90;1.30;;;;;;;24.42;56.81;101762.91;1776670;81;21076;-49
2021/05/27 06:30:35;;;;;;;2.10;1.90;;;;;;;24.53;56.64;101763.06;1721884;82;21071;-48
2021/05/27 06:33:03;;;;;;;1.87;1.77;;;;;;;24.62;56.41;101755.84;1794796;79;21167;-48
2021/05/27 06:35:30;;;;;;;2.02;1.92;;;;;;;24.70;56.01;101757.05;1805346;79;21068;-48
2021/05/27 06:37:59;;;;;;;2.70;2.33;;;;;;;24.74;56.00;101760.40;1784031;79;22216;-48
2021/05/27 06:40:27;;;;;;;1.65;1.55;;;;;;;24.78;55.85;101759.24;1725665;82;21552;-48
2021/05/27 06:42:54;;;;;;;1.70;1.60;;;;;;;24.81;56.02;101762.55;1789142;79;21032;-52
2021/05/27 06:45:21;;;;;;;1.02;1.02;;;;;;;24.88;55.89;101756.35;1732663;81;21731;-48
2021/05/27 06:47:49;;;;;;;1.72;1.62;;;;;;;24.94;55.60;101761.28;1757961;81;21505;-48
2021/05/27 06:50:32;;;;;;;1.25;1.15;;;;;;;25.03;55.38;101763.34;1756455;81;21079;-48
2021/05/27 06:52:47;;;;;;;1.57;1.47;;;;;;;25.10;55.09;101765.96;1727088;82;21049;-47
2021/05/27 06:55:14;;;;;;;1.30;1.20;;;;;;;25.17;54.96;101763.28;1782353;79;21055;-47
2021/05/27 06:57:41;;;;;;;1.70;1.60;;;;;;;25.24;54.63;101759.27;1815469;79;21052;-48
2021/05/27 07:00:09;;;;;;;1.60;1.50;;;;;;;25.32;54.50;101762.27;1734312;82;21060;-48
2021/05/27 07:02:35;;;;;;;1.80;1.70;;;;;;;25.43;54.39;101755.75;1768016;80;21100;-46
2021/05/27 07:05:03;;;;;;;1.75;1.65;;;;;;;25.57;54.11;101758.35;1717676;82;21090;-49
2021/05/27 07:07:30;;;;;;;1.80;1.70;;;;;;;25.74;53.83;101754.03;1781963;78;21036;-48
2021/05/27 07:09:57;;;;;;;1.75;1.65;;;;;;;25.96;53.36;101756.55;1787097;79;21049;-47
2021/05/27 07:12:24;;;;;;;1.60;1.50;;;;;;;26.15;52.89;101757.83;1770006;80;21043;-48
2021/05/27 07:14:51;;;;;;;2.58;1.60;;;;;;;26.35;52.36;101754.61;1776187;79;21009;-48
2021/05/27 07:17:18;;;;;;;4.33;2.10;;;;;;;26.52;51.75;101754.23;1772029;79;21040;-48
2021/05/27 07:19:45;;;;;;;2.05;1.95;;;;;;;26.67;51.23;101761.61;1702256;83;21548;-48
2021/05/27 07:22:12;;;;;;;1.95;1.70;;;;;;;26.79;50.91;101763.91;1712454;82;21116;-48
2021/05/27 07:24:39;;;;;;;4.80;2.25;;;;;;;26.86;50.52;101762.00;1722800;82;21036;-50
2021/05/27 07:27:06;;;;;;;2.52;1.80;;;;;;;26.88;50.47;101758.73;1742562;81;21572;-48
2021/05/27 07:29:33;;;;;;;2.12;1.90;;;;;;;26.88;50.38;101757.88;1750283;80;21559;-48
2021/05/27 07:32:01;;;;;;;1.82;1.55;;;;;;;26.84;50.32;101759.93;1712125;82;21105;-49
2021/05/27 07:34:28;;;;;;;2.20;1.62;;;;;;;26.78;50.53;101763.05;1731093;82;21595;-47
2021/05/27 07:36:56;;;;;;;1.77;1.67;;;;;;;26.72;50.68;101765.31;1750502;80;21059;-49
2021/05/27 07:39:23;;;;;;;1.90;1.80;;;;;;;26.59;50.95;101755.97;1736761;82;21063;-47
2021/05/27 07:41:50;;;;;;;1.87;1.77;;;;;;;26.54;51.07;101756.81;1755248;80;21016;-48
2021/05/27 07:44:17;;;;;;;1.87;1.77;;;;;;;26.54;51.07;101756.81;1777817;79;21028;-47
2021/05/27 07:46:45;;;;;;;1.90;1.80;;;;;;;26.50;51.15;101752.66;1777228;80;21056;-47
2021/05/27 07:49:13;;;;;;;1.95;1.85;;;;;;;26.46;51.27;101751.17;1771649;79;21548;-47
2021/05/27 07:51:39;;;;;;;1.90;1.80;;;;;;;26.40;51.41;101754.26;1767733;80;21575;-48
2021/05/27 07:54:06;;;;;;;2.05;1.90;;;;;;;26.35;51.54;101749.27;1776277;80;21025;-48
2021/05/27 07:56:33;;;;;;;1.90;1.80;;;;;;;26.33;51.42;101757.02;1793660;78;21527;-48
2021/05/27 07:59:00;;;;;;;4.28;2.40;;;;;;;26.29;51.53;101751.52;1742365;82;20997;-48
2021/05/27 08:01:27;;;;;;;4.10;2.40;;;;;;;26.23;51.73;101750.16;1701871;81;21187;-48
2021/05/27 08:03:53;;;;;;;3.25;2.80;;;;;;;26.20;51.84;101754.84;1714085;82;21024;-47
2021/05/27 08:06:20;;;;;;;2.60;2.40;;;;;;;26.16;51.65;101752.02;1730023;82;21100;-48
2021/05/27 08:08:47;;;;;;;3.15;2.87;;;;;;;26.12;51.77;101755.86;1724717;81;21057;-52
2021/05/27 08:11:14;;;;;;;3.47;2.70;;;;;;;26.09;51.84;101760.09;1709036;82;21076;-51
2021/05/27 08:13:42;;;;;;;3.60;2.70;;;;;;;26.07;51.99;101760.66;1718460;82;21140;-49
2021/05/27 08:16:09;;;;;;;5.90;2.87;;;;;;;26.05;52.04;101758.58;1793263;79;21049;-49
2021/05/27 08:18:38;;;;;;;2.60;2.40;;;;;;;26.04;52.30;101752.38;1771752;79;21072;-48
2021/05/27 08:21:05;;;;;;;2.42;2.22;;;;;;;26.03;52.02;101755.16;1767674;79;21075;-49
2021/05/27 08:23:32;;;;;;;3.55;2.33;;;;;;;26.02;52.10;101750.77;1797163;79;21532;-47
2021/05/27 08:25:58;;;;;;;2.17;2.08;;;;;;;26.03;52.18;101744.50;1758799;80;21080;-46
2021/05/27 08:28:26;;;;;;;2.17;1.80;;;;;;;26.05;52.05;101745.23;1797884;78;21024;-49
2021/05/27 08:30:54;;;;;;;2.10;1.87;;;;;;;26.05;52.05;101745.23;1777017;79;21096;-49
2021/05/27 08:33:21;;;;;;;1.80;1.70;;;;;;;26.07;52.04;101745.98;1781080;78;21521;-46
2021/05/27 08:35:48;;;;;;;1.82;1.67;;;;;;;26.09;52.01;101748.09;1773261;79;21020;-48
2021/05/27 08:38:15;;;;;;;1.70;1.60;;;;;;;26.11;52.05;101752.84;1780451;79;21048;-47
2021/05/27 08:40:42;;;;;;;2.10;1.70;;;;;;;26.12;51.90;101755.86;1766754;80;21077;-47
2021/05/27 08:43:10;;;;;;;1.57;1.47;;;;;;;26.12;51.77;101751.86;1782148;79;21020;-47
2021/05/27 08:45:37;;;;;;;1.80;1.70;;;;;;;26.12;51.83;101749.19;1755099;80;21571;-48
2021/05/27 08:48:05;;;;;;;3.37;1.92;;;;;;;26.11;51.90;101753.67;1777919;79;21086;-47
2021/05/27 08:50:40;;;;;;;2.27;1.60;;;;;;;26.11;52.06;101751.51;1781415;79;21588;-49
2021/05/27 08:53:01;;;;;;;1.90;1.80;;;;;;;26.16;52.00;101756.02;1771184;80;21635;-47
2021/05/27 08:55:28;;;;;;;2.05;1.35;;;;;;;26.16;52.00;101756.02;1776197;80;21552;-47
2021/05/27 08:57:55;;;;;;;1.67;1.57;;;;;;;26.18;51.80;101754.09;1758736;80;21111;-47
2021/05/27 09:00:22;;;;;;;1.45;1.35;;;;;;;26.18;51.80;101748.28;1768333;80;21028;-48
2021/05/27 09:03:02;;;;;;;1.30;1.30;;;;;;;26.21;51.89;101749.41;1755211;80;21055;-50
2021/05/27 09:05:32;;;;;;;1.50;1.40;;;;;;;26.26;51.70;101749.06;1632916;86;21588;-48
2021/05/27 09:07:59;;;;;;;1.37;1.30;;;;;;;26.29;51.48;101740.85;1619192;86;21121;-50
2021/05/27 09:10:45;;;;;;;2.00;1.70;;;;;;;26.31;51.45;101735.78;1643542;86;21095;-49
2021/05/27 09:13:20;;;;;;;1.60;1.50;;;;;;;26.33;51.18;101741.86;1635378;86;21062;-52
2021/05/27 09:15:49;;;;;;;1.50;1.40;;;;;;;26.34;51.15;101730.68;1628541;85;21562;-49
2021/05/27 09:18:34;;;;;;;3.30;1.35;;;;;;;26.35;51.19;101729.73;1570695;89;21097;-49
2021/05/27 09:21:03;;;;;;;1.82;1.72;;;;;;;26.36;51.06;101723.41;1558729;90;21125;-48
2021/05/27 09:23:30;;;;;;;1.52;1.42;;;;;;;26.37;51.08;101719.80;1575785;90;21066;-49
2021/05/27 09:26:13;;;;;;;2.05;1.60;;;;;;;26.38;50.96;101714.81;1535326;90;21080;-48
2021/05/27 09:28:44;;;;;;;1.67;1.57;;;;;;;26.42;50.67;101711.00;1530461;92;21627;-49
2021/05/27 09:31:15;;;;;;;1.82;1.72;;;;;;;26.44;50.43;101706.40;1497275;95;21669;-50
2021/05/27 09:33:45;;;;;;;3.20;2.10;;;;;;;26.46;50.21;101707.14;1465127;96;21662;-48
2021/05/27 09:36:17;;;;;;;2.25;2.15;;;;;;;26.49;49.53;101706.42;1429047;98;21151;-52
2021/05/27 09:38:59;;;;;;;1.98;1.87;;;;;;;26.52;49.71;101703.51;1401827;101;21212;-48
2021/05/27 09:41:30;;;;;;;3.50;2.30;;;;;;;26.56;49.40;101702.32;1424418;98;21193;-50
2021/05/27 09:44:08;;;;;;;2.35;2.25;;;;;;;26.59;49.05;101698.58;1418333;99;21179;-50
2021/05/27 09:46:54;;;;;;;2.20;2.00;;;;;;;26.61;49.21;101697.98;1429869;99;21140;-50
2021/05/27 09:49:25;;;;;;;4.40;1.90;;;;;;;26.63;49.08;101689.38;1355983;104;21142;-49
2021/05/27 09:51:55;;;;;;;2.77;2.00;;;;;;;26.65;49.15;101694.12;1359029;104;21189;-51
2021/05/27 09:54:24;;;;;;;2.37;1.77;;;;;;;26.68;48.87;101692.58;1350298;105;21190;-53
2021/05/27 09:56:51;;;;;;;1.85;1.75;;;;;;;26.69;48.68;101687.59;1308599;108;21182;-47
2021/05/27 09:59:18;;;;;;;2.72;2.52;;;;;;;26.70;48.96;101693.31;1306973;109;21270;-50
2021/05/27 10:02:15;;;;;;;2.00;1.72;;;;;;;26.72;48.68;101690.55;1318236;107;21778;-49
2021/05/27 10:05:05;;;;;;;1.72;1.62;;;;;;;26.73;48.29;101690.43;1324578;108;22540;-49
2021/05/27 10:07:51;;;;;;;2.52;1.90;;;;;;;26.77;48.68;101685.23;1325856;108;21233;-49
2021/05/27 10:10:23;;;;;;;3.27;2.17;;;;;;;26.79;48.49;101686.47;1324212;107;21244;-49
2021/05/27 10:12:52;;;;;;;3.15;2.50;;;;;;;26.77;48.12;101681.73;1313244;108;21302;-49
2021/05/27 10:15:25;;;;;;;2.40;2.20;;;;;;;26.77;47.93;101677.22;1330317;105;21168;-48
2021/05/27 10:17:54;;;;;;;2.50;2.30;;;;;;;26.76;48.07;101674.20;1316336;107;22022;-51
2021/05/27 10:20:25;;;;;;;4.00;2.12;;;;;;;26.76;48.03;101668.00;1292546;109;21324;-50
2021/05/27 10:22:54;;;;;;;2.57;2.37;;;;;;;26.71;47.14;101667.47;1297006;109;21175;-52
2021/05/27 10:25:20;;;;;;;3.00;2.70;;;;;;;26.66;47.17;101668.28;1301003;108;21361;-52
2021/05/27 10:27:49;;;;;;;12.78;2.55;;;;;;;26.63;47.73;101671.20;1288848;109;21705;-49
2021/05/27 10:30:19;;;;;;;2.50;2.30;;;;;;;26.59;47.55;101670.55;1319748;106;21121;-46
2021/05/27 10:32:52;;;;;;;2.58;2.37;;;;;;;26.53;48.05;101669.67;1304427;108;21214;-49
2021/05/27 10:35:18;;;;;;;2.20;2.10;;;;;;;26.57;48.33;101669.81;1328646;106;21215;-46
2021/05/27 10:37:48;;;;;;;2.83;2.62;;;;;;;26.62;47.44;101665.00;1360676;102;21279;-53
2021/05/27 10:40:24;;;;;;;2.80;2.60;;;;;;;26.62;47.44;101665.00;1448933;96;21233;-52
2021/05/27 10:46:03;;;;;;;3.37;3.10;;;;;;;26.64;47.10;101664.40;1399829;99;21702;-47
2021/05/27 10:48:42;;;;;;;2.47;2.27;;;;;;;26.64;46.86;101657.73;1442072;97;21159;-48
2021/05/27 10:51:23;;;;;;;2.62;2.42;;;;;;;26.64;46.58;101656.39;1431295;98;21664;-50
2021/05/27 10:53:51;;;;;;;3.40;2.85;;;;;;;26.63;46.09;101650.67;1427811;97;21163;-50
2021/05/27 10:56:21;;;;;;;2.75;2.55;;;;;;;26.58;46.15;101644.33;1448264;97;21120;-49
2021/05/27 10:58:55;;;;;;;2.67;2.47;;;;;;;26.56;46.64;101640.92;1456345;97;21193;-47
2021/05/27 11:01:35;;;;;;;2.87;2.33;;;;;;;26.56;46.64;101640.92;1442222;97;21666;-47
2021/05/27 11:04:23;;;;;;;4.28;2.80;;;;;;;26.59;46.08;101633.17;1440980;98;21139;-49
2021/05/27 11:07:12;;;;;;;3.00;2.72;;;;;;;26.60;45.30;101641.56;1436268;97;21656;-47
2021/05/27 11:09:40;;;;;;;2.50;2.30;;;;;;;26.59;45.80;101643.86;1443261;97;21617;-46
2021/05/27 11:12:13;;;;;;;3.42;3.10;;;;;;;26.61;45.51;101633.91;1452609;97;21664;-50
2021/05/27 11:14:47;;;;;;;2.95;2.75;;;;;;;26.63;45.69;101636.84;1434252;97;21111;-51
2021/05/27 11:17:17;;;;;;;3.22;2.70;;;;;;;26.66;45.37;101634.91;1389753;101;21186;-51
2021/05/27 11:19:56;;;;;;;2.60;2.40;;;;;;;26.69;45.04;101635.52;1399716;101;21735;-47
2021/05/27 11:22:36;;;;;;;3.37;2.92;;;;;;;26.69;45.04;101635.52;1408952;101;21172;-48
2021/05/27 11:25:19;;;;;;;2.72;2.50;;;;;;;26.75;44.79;101631.09;1413722;100;21229;-48
2021/05/27 11:28:03;;;;;;;5.83;2.85;;;;;;;26.73;44.37;101621.52;1410443;98;21172;-50
2021/05/27 11:30:45;;;;;;;3.70;2.55;;;;;;;26.73;44.37;101621.52;1460986;96;21119;-47
2021/05/27 11:36:07;;;;;;;3.20;2.90;;;;;;;26.75;44.44;101627.08;1399775;101;21257;-51
2021/05/27 11:38:36;;;;;;;3.35;2.60;;;;;;;26.76;44.37;101627.94;1385570;102;21196;-47
2021/05/27 11:41:08;;;;;;;2.60;2.40;;;;;;;26.85;44.83;101628.12;1380176;100;21234;-47
2021/05/27 11:43:42;;;;;;;2.70;2.50;;;;;;;26.85;44.83;101628.12;1402869;99;21211;-46
2021/05/27 11:46:25;;;;;;;2.60;2.40;;;;;;;26.90;44.99;101619.25;1380152;102;21209;-47
2021/05/27 11:51:34;;;;;;;2.85;2.65;;;;;;;27.02;44.14;101624.99;1344119;103;21274;-48
2021/05/27 11:54:03;;;;;;;2.67;2.47;;;;;;;27.07;44.38;101617.48;1298467;108;21873;-51
2021/05/27 11:56:38;;;;;;;2.95;2.58;;;;;;;27.09;44.26;101613.36;1327932;105;21836;-51
2021/05/27 11:59:20;;;;;;;3.27;2.47;;;;;;;27.13;44.35;101614.34;1313895;107;21449;-52
2021/05/27 12:01:58;;;;;;;9.18;3.20;;;;;;;27.17;44.31;101612.27;1322790;106;21278;-48
2021/05/27 12:04:28;;;;;;;3.40;2.80;;;;;;;27.19;44.48;101616.53;1332093;106;21273;-48
2021/05/27 12:07:11;;;;;;;2.98;2.30;;;;;;;27.23;44.47;101622.01;1325760;106;21753;-47
2021/05/27 12:09:46;;;;;;;2.40;2.15;;;;;;;27.23;44.47;101622.01;1317504;106;21332;-50
2021/05/27 12:12:27;;;;;;;3.35;2.77;;;;;;;27.25;44.57;101624.08;1316457;107;21819;-50
2021/05/27 12:15:02;;;;;;;3.17;2.60;;;;;;;27.25;44.67;101621.41;1334577;104;21239;-48
2021/05/27 12:17:38;;;;;;;2.62;2.42;;;;;;;27.28;44.68;101614.50;1346466;104;21238;-48
2021/05/27 12:34:15;;;;;;;2.95;2.75;;;;;;;27.31;44.87;101600.88;1202278;117;21245;-47
2021/05/27 12:36:59;;;;;;;3.10;2.22;;;;;;;27.31;44.87;101600.88;1205219;117;21245;-47
2021/05/27 12:39:34;;;;;;;3.45;2.60;;;;;;;27.30;44.57;101596.52;1196984;117;21404;-49
2021/05/27 12:42:03;;;;;;;2.90;2.70;;;;;;;27.28;44.79;101587.78;1225940;115;21158;-47
2021/05/27 12:44:44;;;;;;;2.55;2.35;;;;;;;27.28;44.53;101585.10;1229792;113;21881;-47
2021/05/27 12:47:21;;;;;;;;;;;;;;;27.28;44.53;101585.10;1232621;116;21199;-49
2021/05/27 12:49:49;;;;;;;2.42;2.22;;;;;;;27.27;44.68;101579.37;1205403;116;20253;-48
2021/05/27 12:52:42;;;;;;;3.05;2.85;;;;;;;27.26;44.58;101586.19;1232321;115;21250;-51
2021/05/27 12:55:10;;;;;;;2.40;2.20;;;;;;;27.25;44.54;101583.13;1251786;113;21792;-50
2021/05/27 12:57:52;;;;;;;2.95;2.60;;;;;;;27.26;44.58;101583.04;1259491;113;21298;-47
2021/05/27 13:00:21;;;;;;;4.40;2.65;;;;;;;27.27;44.81;101579.86;1241683;113;21281;-53
2021/05/27 13:03:07;;;;;;;2.83;2.60;;;;;;;27.27;45.18;101584.72;1273641;108;21204;-50
2021/05/27 13:05:33;;;;;;;3.65;2.70;;;;;;;27.29;45.09;101578.77;1316198;107;21295;-50
2021/05/27 13:08:03;;;;;;;3.92;2.62;;;;;;;27.31;44.86;101577.30;1333813;106;21185;-46
2021/05/27 13:10:35;;;;;;;3.05;2.83;;;;;;;27.30;45.05;101576.48;1356312;104;21172;-47
2021/05/27 13:13:03;;;;;;;2.70;2.50;;;;;;;27.29;45.00;101572.56;1349422;105;21208;-47
2021/05/27 13:15:32;;;;;;;3.40;3.10;;;;;;;27.27;45.22;101563.34;1414370;99;21187;-48
2021/05/27 13:18:11;;;;;;;3.27;2.98;;;;;;;27.27;45.55;101568.69;1367896;103;21309;-49
2021/05/27 13:21:01;;;;;;;2.67;2.47;;;;;;;27.27;45.66;101560.67;1468158;95;21118;-50
2021/05/27 13:23:36;;;;;;;2.72;2.52;;;;;;;27.28;45.76;101557.05;1442019;98;21141;-47
2021/05/27 13:26:17;;;;;;;3.00;2.67;;;;;;;27.26;45.46;101552.31;1442227;97;21996;-47
2021/05/27 13:28:45;;;;;;;3.17;2.47;;;;;;;27.22;45.83;101551.33;1437994;97;21148;-49
2021/05/27 13:31:12;;;;;;;2.83;2.62;;;;;;;27.22;45.83;101551.33;1439773;98;21791;-47
2021/05/27 13:33:39;;;;;;;4.75;3.05;;;;;;;27.12;46.13;101549.84;1440518;98;21719;-48
2021/05/27 13:36:06;;;;;;;2.80;2.58;;;;;;;27.12;46.13;101549.84;1443696;97;21113;-46
2021/05/27 13:38:34;;;;;;;8.75;3.55;;;;;;;27.03;45.98;101546.57;1426536;97;21117;-50
2021/05/27 13:41:01;;;;;;;2.85;2.62;;;;;;;27.00;46.44;101545.45;1460248;97;21668;-47
2021/05/27 13:43:33;;;;;;;4.45;2.85;;;;;;;27.00;46.44;101545.45;1489968;92;21179;-48
2021/05/27 13:46:05;;;;;;;4.07;2.90;;;;;;;26.99;46.27;101551.78;1527469;91;21623;-51
2021/05/27 13:48:34;;;;;;;3.17;2.62;;;;;;;26.96;46.38;101550.67;1561061;90;21133;-49
2021/05/27 13:51:07;;;;;;;3.10;2.90;;;;;;;26.87;46.54;101543.87;1572651;90;21720;-49
2021/05/27 13:53:37;;;;;;;3.02;2.77;;;;;;;26.87;46.54;101543.87;1567051;90;22204;-48
2021/05/27 13:56:05;;;;;;;3.27;2.98;;;;;;;26.83;46.94;101549.91;1642740;84;21098;-50
2021/05/27 13:58:33;;;;;;;3.25;2.95;;;;;;;26.79;47.04;101545.77;1668032;84;21161;-51
2021/05/27 14:01:00;;;;;;;3.05;2.80;;;;;;;26.77;47.29;101543.70;1670930;84;21159;-51
2021/05/27 14:03:30;;;;;;;3.00;2.80;;;;;;;26.74;47.16;101542.63;1652772;85;21067;-49
2021/05/27 14:05:57;;;;;;;3.25;2.95;;;;;;;26.71;46.58;101534.80;1653649;85;21576;-49
2021/05/27 14:08:24;;;;;;;4.15;3.12;;;;;;;26.71;46.58;101534.80;1659638;84;21083;-48
2021/05/27 14:10:53;;;;;;;4.05;3.17;;;;;;;26.66;46.82;101534.80;1613390;87;21119;-49
2021/05/27 14:13:20;;;;;;;3.45;3.15;;;;;;;26.61;47.14;101536.47;1624300;86;21067;-47
2021/05/27 14:15:47;;;;;;;3.10;2.90;;;;;;;26.56;47.00;101528.81;1634921;86;23277;-46
2021/05/27 14:18:14;;;;;;;3.25;2.80;;;;;;;26.52;47.21;101534.02;1653520;84;21103;-48
2021/05/27 14:20:41;;;;;;;3.37;2.83;;;;;;;26.47;47.42;101527.33;1675578;82;21065;-45
2021/05/27 14:23:08;;;;;;;7.35;3.35;;;;;;;26.44;47.58;101532.41;1719182;82;21092;-47
2021/05/27 14:25:35;;;;;;;3.30;2.80;;;;;;;26.39;47.15;101515.05;1713409;82;21096;-48
2021/05/27 14:28:03;;;;;;;3.33;3.00;;;;;;;26.31;46.58;101520.12;1735831;81;21037;-51
2021/05/27 14:30:31;;;;;;;2.90;2.67;;;;;;;26.31;46.58;101520.12;1717607;81;21113;-46
2021/05/27 14:32:58;;;;;;;4.20;3.05;;;;;;;26.29;46.86;101519.39;1702665;83;21047;-48
2021/05/27 14:35:26;;;;;;;3.37;2.75;;;;;;;26.31;46.20;101522.80;1701265;83;21627;-53
2021/05/27 14:37:53;;;;;;;3.52;3.17;;;;;;;26.29;46.11;101522.05;1760170;79;21563;-51
2021/05/27 14:40:20;;;;;;;3.60;3.15;;;;;;;26.26;46.34;101515.13;1750132;80;21869;-48
2021/05/27 14:42:48;;;;;;;4.80;3.00;;;;;;;26.25;46.21;101515.25;1773067;79;21041;-52
2021/05/27 14:45:17;;;;;;;3.75;3.00;;;;;;;26.22;46.46;101508.80;1782610;79;21020;-48
2021/05/27 14:47:44;;;;;;;5.85;2.92;;;;;;;26.16;45.73;101511.92;1782446;79;21012;-46
2021/05/27 14:50:12;;;;;;;2.60;2.33;;;;;;;26.16;45.73;101511.92;1781355;79;21079;-48
2021/05/27 14:52:43;;;;;;;4.40;2.98;;;;;;;26.12;45.51;101505.12;1776649;79;21040;-48
2021/05/27 14:55:13;;;;;;;2.95;2.70;;;;;;;26.09;45.56;101504.03;1773391;79;21012;-50
2021/05/27 14:57:40;;;;;;;4.20;3.15;;;;;;;26.05;45.42;101501.19;1779958;79;21031;-49
2021/05/27 15:00:08;;;;;;;4.00;3.33;;;;;;;26.00;45.32;101496.66;1731583;81;21088;-47
2021/05/27 15:02:42;;;;;;;3.70;2.72;;;;;;;25.96;45.68;101495.19;1761897;80;21630;-46
2021/05/27 15:05:05;;;;;;;3.85;2.80;;;;;;;25.93;46.14;101497.59;1761566;80;21040;-48
2021/05/27 15:07:32;;;;;;;3.67;3.33;;;;;;;25.90;46.27;101488.98;1774854;79;21032;-48
2021/05/27 15:10:00;;;;;;;5.22;3.72;;;;;;;25.86;46.51;101486.17;1775097;80;21671;-48
2021/05/27 15:12:27;;;;;;;4.15;2.95;;;;;;;25.84;46.98;101485.78;1788249;79;21044;-49
2021/05/27 15:14:54;;;;;;;3.47;3.10;;;;;;;25.82;47.28;101491.72;1707303;82;21582;-47
2021/05/27 15:17:21;;;;;;;3.12;2.83;;;;;;;25.80;47.54;101489.64;1737296;81;21053;-48
2021/05/27 15:19:48;;;;;;;3.27;3.08;;;;;;;25.79;47.76;101486.62;1730785;82;21040;-48
2021/05/27 15:22:17;;;;;;;3.10;2.90;;;;;;;25.77;47.82;101477.89;1736766;80;21065;-47
2021/05/27 15:24:47;;;;;;;2.90;2.70;;;;;;;25.78;47.97;101483.58;1703166;81;21674;-51
2021/05/27 15:27:13;;;;;;;2.90;2.70;;;;;;;25.77;48.10;101472.56;1776910;79;21020;-53
2021/05/27 15:29:40;;;;;;;3.05;2.80;;;;;;;25.79;48.20;101481.30;1771872;79;21063;-50
2021/05/27 15:32:09;;;;;;;3.00;2.70;;;;;;;25.80;47.93;101472.31;1771307;79;21049;-49
2021/05/27 15:34:37;;;;;;;3.00;2.80;;;;;;;25.80;47.89;101472.31;1780451;78;21577;-48
2021/05/27 15:37:07;;;;;;;2.85;2.65;;;;;;;25.80;47.89;101472.31;1771766;80;21039;-50
2021/05/27 15:39:33;;;;;;;4.80;3.02;;;;;;;25.79;47.63;101469.77;1768780;79;21559;-47
2021/05/27 15:42:00;;;;;;;2.85;2.65;;;;;;;25.77;47.84;101462.38;1775610;79;21079;-47
2021/05/27 15:44:27;;;;;;;3.20;2.95;;;;;;;25.75;48.24;101467.83;1772705;79;21087;-50
2021/05/27 15:46:54;;;;;;;3.65;3.33;;;;;;;25.73;48.51;101467.56;1775653;78;21063;-49
2021/05/27 15:49:22;;;;;;;3.40;3.10;;;;;;;25.71;48.62;101461.48;1773759;80;21094;-46
2021/05/27 15:51:51;;;;;;;2.83;2.62;;;;;;;25.71;48.70;101453.50;1765798;79;21033;-47
2021/05/27 15:54:17;;;;;;;6.47;3.47;;;;;;;25.71;48.71;101447.69;1767123;79;20996;-49
2021/05/27 15:56:44;;;;;;;3.40;2.80;;;;;;;25.73;48.39;101449.76;1774363;78;21449;-48
2021/05/27 15:59:11;;;;;;;3.10;2.90;;;;;;;25.75;48.45;101449.16;1769686;79;21027;-46
2021/05/27 16:01:38;;;;;;;3.15;2.85;;;;;;;25.78;48.33;101447.59;1781814;79;21579;-49
2021/05/27 16:04:06;;;;;;;2.85;2.65;;;;;;;25.81;48.11;101443.37;1777050;79;21073;-48
2021/05/27 16:06:33;;;;;;;3.52;2.33;;;;;;;25.83;47.79;101442.78;1782769;79;21004;-49
2021/05/27 16:09:00;;;;;;;2.50;2.30;;;;;;;25.87;46.97;101445.20;1782851;79;21496;-47
2021/05/27 16:11:28;;;;;;;2.72;2.52;;;;;;;25.87;45.64;101445.20;1773589;79;21049;-46
2021/05/27 16:13:55;;;;;;;4.75;2.92;;;;;;;25.88;44.75;101440.25;1754563;79;21099;-50
2021/05/27 16:16:23;;;;;;;6.20;2.80;;;;;;;25.87;44.16;101430.06;1777489;79;21020;-47
2021/05/27 16:18:52;;;;;;;8.65;2.92;;;;;;;25.88;43.59;101430.92;1774179;79;21167;-47
2021/05/27 16:21:18;;;;;;;2.90;2.45;;;;;;;25.87;43.47;101423.87;1765350;79;21052;-48
2021/05/27 16:23:46;;;;;;;2.52;2.33;;;;;;;25.86;42.64;101428.84;1757304;80;21130;-49
2021/05/27 16:26:13;;;;;;;5.92;2.37;;;;;;;25.83;42.53;101423.25;1767340;80;21075;-51
2021/05/27 16:28:40;;;;;;;4.10;2.70;;;;;;;25.81;43.08;101423.85;1770984;79;21550;-46
2021/05/27 16:31:08;;;;;;;3.65;2.80;;;;;;;25.79;43.37;101423.98;1768310;79;20999;-49
2021/05/27 16:33:37;;;;;;;2.37;2.17;;;;;;;25.77;42.65;101423.23;1772970;79;21544;-46
2021/05/27 16:38:36;;;;;;;5.07;2.87;;;;;;;25.73;41.26;101427.57;1775072;79;21127;-49
2021/05/27 16:41:04;;;;;;;5.45;3.02;;;;;;;25.71;40.67;101429.50;1784148;79;21562;-48
2021/05/27 16:43:34;;;;;;;5.28;3.40;;;;;;;25.70;40.44;101436.64;1770968;80;21135;-50
2021/05/27 16:46:02;;;;;;;4.65;2.60;;;;;;;25.69;40.24;101436.77;1770986;79;21606;-47
2021/05/27 16:48:31;;;;;;;7.25;3.50;;;;;;;25.68;40.52;101429.24;1769649;79;21034;-47
2021/05/27 16:50:58;;;;;;;7.97;3.35;;;;;;;25.68;40.72;101427.91;1775630;79;21053;-48
2021/05/27 16:53:25;;;;;;;3.15;2.67;;;;;;;25.66;40.65;101432.50;1768471;80;21040;-47
2021/05/27 16:55:52;;;;;;;2.62;2.42;;;;;;;25.65;40.89;101430.81;1780062;79;21064;-47
2021/05/27 16:58:19;;;;;;;4.58;2.77;;;;;;;25.63;41.25;101432.75;1782300;79;21029;-49
2021/05/27 17:00:45;;;;;;;3.77;2.25;;;;;;;25.61;41.33;101429.34;1776802;79;21068;-47
2021/05/27 17:03:13;;;;;;;4.70;3.00;;;;;;;25.60;41.44;101425.44;1774256;79;21560;-47
2021/05/27 17:05:40;;;;;;;4.85;2.70;;;;;;;25.55;41.49;101419.61;1772589;79;21088;-49
2021/05/27 17:08:07;;;;;;;3.25;2.55;;;;;;;25.52;41.84;101420.68;1774616;79;21047;-47
2021/05/27 17:10:34;;;;;;;6.53;2.92;;;;;;;25.48;42.25;101423.20;1760508;80;21060;-50
2021/05/27 17:13:01;;;;;;;4.05;3.05;;;;;;;25.45;42.39;101424.74;1764359;80;21558;-51
2021/05/27 17:15:29;;;;;;;3.22;2.65;;;;;;;25.40;42.66;101420.22;1772943;80;21163;-50
2021/05/27 17:17:56;;;;;;;3.02;2.75;;;;;;;25.36;42.99;101422.73;1778768;79;21034;-47
2021/05/27 17:20:22;;;;;;;5.30;2.70;;;;;;;25.31;43.10;101419.54;1772896;79;21575;-49
2021/05/27 17:22:50;;;;;;;6.15;2.70;;;;;;;25.27;43.12;101420.72;1771924;80;21084;-49
2021/05/27 17:25:17;;;;;;;6.17;3.12;;;;;;;25.23;43.15;101415.25;1773047;79;21013;-48
2021/05/27 17:27:45;;;;;;;5.37;2.90;;;;;;;25.18;43.28;101416.08;1773431;80;21033;-47
2021/05/27 17:30:14;;;;;;;5.70;3.00;;;;;;;25.14;43.28;101412.41;1773211;79;21044;-50
2021/05/27 17:32:41;;;;;;;12.82;3.35;;;;;;;25.09;43.61;101415.39;1766307;79;21048;-47
2021/05/27 17:35:10;;;;;;;6.37;3.33;;;;;;;25.04;43.86;101413.53;1775658;79;21008;-51
2021/05/27 17:37:37;;;;;;;5.58;3.05;;;;;;;25.00;43.99;101416.04;1782742;79;21559;-52
2021/05/27 17:40:07;;;;;;;6.80;3.37;;;;;;;24.96;43.95;101417.22;1777177;80;22916;-47
2021/05/27 17:42:34;;;;;;;15.48;4.67;;;;;;;24.91;44.17;101414.91;1765132;80;21001;-47
2021/05/27 17:45:01;;;;;;;9.70;4.33;;;;;;;24.87;44.26;101416.56;1785591;79;21582;-47
2021/05/27 17:47:27;;;;;;;5.70;4.00;;;;;;;24.83;44.20;101420.39;1781958;79;21004;-47
2021/05/27 17:49:55;;;;;;;7.05;3.95;;;;;;;24.79;44.33;101417.58;1784038;79;21091;-46
2021/05/27 17:52:22;;;;;;;11.05;4.90;;;;;;;24.74;44.55;101419.70;1783602;79;21045;-47
2021/05/27 17:54:49;;;;;;;9.30;5.03;;;;;;;24.69;44.90;101417.83;1764625;80;21051;-49
2021/05/27 17:57:16;;;;;;;7.62;4.95;;;;;;;24.63;45.98;101423.08;1773759;80;21043;-46
2021/05/27 17:59:42;;;;;;;8.00;5.15;;;;;;;24.59;47.41;101422.91;1773274;80;21539;-48
2021/05/27 18:02:10;;;;;;;8.18;5.70;;;;;;;24.55;49.39;101423.23;1770414;80;21029;-51
2021/05/27 18:04:36;;;;;;;7.60;5.92;;;;;;;24.50;50.43;101424.90;1777741;80;21044;-47
2021/05/27 18:07:03;;;;;;;7.53;5.40;;;;;;;24.48;50.96;101423.30;1773711;79;21017;-50
2021/05/27 18:09:30;;;;;;;10.05;6.08;;;;;;;24.46;51.34;101418.56;1768471;79;21036;-49
2021/05/27 18:11:58;;;;;;;10.20;5.78;;;;;;;24.45;51.73;101428.81;1772778;79;21048;-51
2021/05/27 18:14:25;;;;;;;9.68;5.05;;;;;;;24.44;52.33;101427.95;1770167;80;21028;-47
2021/05/27 18:16:52;;;;;;;8.53;5.40;;;;;;;24.44;52.88;101432.45;1780627;79;21049;-49
2021/05/27 18:19:19;;;;;;;5.72;5.10;;;;;;;24.45;53.26;101432.33;1781970;79;21007;-49